Time;durP1;ratioP1;P1;durP2;ratioP2;P2;SDS_P1;SDS_P2;PMS_P1;PMS_P2;Temp;Humidity;BMP_temperature;BMP_pressure;BME280_temperature;BME280_humidity;BME280_pressure;Samples;Min_cycle;Max_cycle;Signal;HPM_P1;HPM_P2
2022/04/04 00:00:53;;;;;;;4.90;1.50;;;4.40;99.90;;;;;;5050496;28;20420;-68
2022/04/04 00:03:20;;;;;;;3.40;1.70;;;4.30;99.90;;;;;;5051770;28;20400;-67
2022/04/04 00:05:47;;;;;;;3.08;1.55;;;4.40;99.90;;;;;;5050552;28;20449;-68
2022/04/04 00:08:13;;;;;;;3.63;1.70;;;4.40;99.90;;;;;;5050629;28;20045;-69
2022/04/04 00:10:38;;;;;;;4.07;1.37;;;4.40;99.90;;;;;;5051557;28;20515;-70
2022/04/04 00:13:04;;;;;;;5.07;1.70;;;4.40;99.90;;;;;;5038041;28;20464;-68
2022/04/04 00:15:31;;;;;;;8.45;2.35;;;4.50;99.90;;;;;;5045165;28;20044;-68
2022/04/04 00:17:57;;;;;;;7.45;2.28;;;4.50;99.90;;;;;;5048183;28;20040;-68
2022/04/04 00:20:23;;;;;;;4.73;1.80;;;4.50;99.90;;;;;;5048412;28;20033;-68
2022/04/04 00:22:49;;;;;;;8.80;2.28;;;4.50;99.90;;;;;;5048301;28;20192;-69
2022/04/04 00:25:14;;;;;;;5.53;2.13;;;4.50;99.90;;;;;;5022591;28;20072;-68
2022/04/04 00:27:40;;;;;;;5.73;2.53;;;4.50;99.90;;;;;;5042725;28;20029;-68
2022/04/04 00:30:07;;;;;;;6.88;2.95;;;4.50;99.90;;;;;;5043339;28;20045;-69
2022/04/04 00:32:33;;;;;;;6.90;2.80;;;4.60;99.90;;;;;;5031416;28;20473;-69
2022/04/04 00:35:00;;;;;;;8.17;3.53;;;4.60;99.90;;;;;;5029594;28;20048;-69
2022/04/04 00:37:26;;;;;;;5.03;2.75;;;4.70;99.90;;;;;;5048441;28;20053;-68
2022/04/04 00:39:51;;;;;;;5.33;3.37;;;4.70;99.90;;;;;;5029922;28;20049;-68
2022/04/04 00:42:17;;;;;;;8.80;4.23;;;4.70;99.90;;;;;;5029679;28;20314;-68
2022/04/04 00:44:45;;;;;;;7.75;3.92;;;4.80;99.90;;;;;;5048958;28;20167;-68
2022/04/04 00:47:11;;;;;;;7.82;3.97;;;4.80;99.90;;;;;;5028551;28;20060;-68
2022/04/04 00:49:37;;;;;;;15.45;4.78;;;4.90;99.90;;;;;;5045796;28;20044;-68
2022/04/04 00:52:04;;;;;;;11.23;5.13;;;4.90;99.90;;;;;;5039889;28;20037;-68
2022/04/04 00:54:29;;;;;;;11.00;5.03;;;5.00;99.90;;;;;;5029542;28;20433;-68
2022/04/04 00:56:56;;;;;;;15.33;5.50;;;5.00;99.90;;;;;;5045677;28;20041;-69
2022/04/04 00:59:23;;;;;;;10.43;5.00;;;5.10;99.90;;;;;;5049061;28;20045;-68
2022/04/04 01:01:50;;;;;;;10.77;5.22;;;5.10;99.90;;;;;;5028309;28;20041;-68
2022/04/04 01:04:16;;;;;;;10.15;5.63;;;5.10;99.90;;;;;;5030932;28;20060;-68
2022/04/04 01:06:43;;;;;;;12.02;5.30;;;5.20;99.90;;;;;;5046524;28;20036;-68
2022/04/04 01:09:14;;;;;;;11.02;5.18;;;5.20;99.90;;;;;;5027586;28;20063;-68
2022/04/04 01:12:02;;;;;;;12.35;6.13;;;5.20;99.90;;;;;;5029365;28;20056;-68
2022/04/04 01:14:28;;;;;;;15.32;6.10;;;5.30;99.90;;;;;;5045625;28;20041;-68
2022/04/04 01:16:54;;;;;;;18.58;6.57;;;5.30;99.90;;;;;;5029383;28;20047;-68
2022/04/04 01:19:19;;;;;;;12.03;6.07;;;5.40;99.90;;;;;;5026997;28;20131;-68
2022/04/04 01:21:45;;;;;;;11.43;5.77;;;5.30;99.90;;;;;;5030423;28;20080;-69
2022/04/04 01:24:17;;;;;;;10.80;6.07;;;5.40;99.90;;;;;;5048198;28;20056;-68
2022/04/04 01:26:50;;;;;;;11.23;5.80;;;5.30;99.90;;;;;;5046890;28;20044;-68
2022/04/04 01:29:16;;;;;;;16.05;6.30;;;5.40;99.90;;;;;;5050189;28;20132;-68
2022/04/04 01:31:42;;;;;;;11.83;6.17;;;5.40;99.90;;;;;;5043762;28;20517;-68
2022/04/04 01:34:10;;;;;;;12.30;6.55;;;5.40;99.90;;;;;;5046406;28;20363;-69
2022/04/04 01:36:36;;;;;;;10.77;6.57;;;5.40;99.90;;;;;;5047758;28;20091;-68
2022/04/04 01:39:05;;;;;;;12.53;6.13;;;5.40;99.90;;;;;;5045510;28;20082;-68
2022/04/04 01:41:31;;;;;;;16.80;5.93;;;5.30;99.90;;;;;;5045693;28;20033;-68
2022/04/04 01:43:59;;;;;;;11.43;6.27;;;5.30;99.90;;;;;;5047876;28;20350;-69
2022/04/04 01:46:27;;;;;;;11.35;6.00;;;5.20;99.90;;;;;;5028402;28;20127;-68
2022/04/04 01:48:54;;;;;;;10.63;5.47;;;5.20;99.90;;;;;;5048687;28;20070;-68
2022/04/04 01:51:20;;;;;;;11.45;7.22;;;5.20;99.90;;;;;;5020346;28;20073;-68
2022/04/04 01:53:46;;;;;;;10.95;6.55;;;5.20;99.90;;;;;;5026514;28;20036;-68
2022/04/04 01:56:12;;;;;;;13.35;7.40;;;5.10;99.90;;;;;;5046055;28;20033;-68
2022/04/04 01:58:39;;;;;;;14.93;8.15;;;5.10;99.90;;;;;;5048037;28;20102;-68
2022/04/04 02:01:19;;;;;;;16.27;7.68;;;5.20;99.90;;;;;;5027923;28;20091;-69
2022/04/04 02:03:47;;;;;;;15.35;8.13;;;5.20;99.90;;;;;;5047239;28;20045;-68
2022/04/04 02:06:13;;;;;;;18.30;8.07;;;5.20;99.90;;;;;;5045254;28;20053;-68
2022/04/04 02:08:42;;;;;;;13.45;8.25;;;5.30;99.90;;;;;;5042402;28;20057;-68
2022/04/04 02:11:07;;;;;;;19.65;8.30;;;5.30;99.90;;;;;;5044513;28;20041;-68
2022/04/04 02:13:33;;;;;;;18.10;9.13;;;5.30;99.90;;;;;;5048580;28;20040;-68
2022/04/04 02:16:03;;;;;;;13.30;8.10;;;5.40;99.90;;;;;;5028965;28;20049;-69
2022/04/04 02:18:30;;;;;;;16.23;8.70;;;5.40;99.90;;;;;;5030136;28;20536;-68
2022/04/04 02:20:56;;;;;;;21.40;8.93;;;5.40;99.90;;;;;;5019821;28;20063;-69
2022/04/04 02:23:22;;;;;;;16.08;8.15;;;5.40;99.90;;;;;;5047137;28;20040;-68
2022/04/04 02:25:49;;;;;;;11.60;7.10;;;5.40;99.90;;;;;;5041836;28;20044;-68
2022/04/04 02:28:18;;;;;;;13.48;7.15;;;5.40;99.90;;;;;;5044723;28;20306;-68
2022/04/04 02:30:46;;;;;;;12.27;7.22;;;5.40;99.90;;;;;;5032033;28;20150;-68
2022/04/04 02:33:12;;;;;;;15.60;7.72;;;5.40;99.90;;;;;;5046430;28;20102;-68
2022/04/04 02:35:38;;;;;;;16.48;7.53;;;5.40;99.90;;;;;;5044307;28;20065;-68
2022/04/04 02:38:05;;;;;;;12.68;7.35;;;5.50;99.90;;;;;;5047766;28;20047;-68
2022/04/04 02:40:31;;;;;;;15.82;8.05;;;5.50;99.90;;;;;;5022869;28;20087;-68
2022/04/04 02:42:56;;;;;;;19.40;8.48;;;5.50;99.90;;;;;;5029775;28;20477;-68
2022/04/04 02:45:22;;;;;;;18.47;9.20;;;5.50;99.90;;;;;;5046873;28;20317;-68
2022/04/04 02:47:48;;;;;;;17.23;7.70;;;5.60;99.90;;;;;;5047748;28;20730;-68
2022/04/04 02:50:14;;;;;;;16.97;10.07;;;5.50;99.90;;;;;;5029227;28;20094;-68
2022/04/04 02:52:40;;;;;;;20.42;9.05;;;5.60;99.90;;;;;;5024134;28;20706;-68
2022/04/04 02:57:51;;;;;;;20.02;8.40;;;5.60;99.90;;;;;;5048860;28;20401;-68
2022/04/04 03:00:17;;;;;;;13.83;8.33;;;5.60;99.90;;;;;;5043872;28;20064;-68
2022/04/04 03:02:44;;;;;;;13.52;7.70;;;5.70;99.90;;;;;;5029786;28;20041;-68
2022/04/04 03:05:10;;;;;;;18.38;8.70;;;5.70;99.90;;;;;;5025109;28;20040;-68
2022/04/04 03:07:35;;;;;;;20.30;8.37;;;5.70;99.90;;;;;;5026883;28;20033;-68
2022/04/04 03:10:02;;;;;;;20.40;8.97;;;5.80;99.90;;;;;;5043166;28;20429;-68
2022/04/04 03:12:28;;;;;;;26.15;10.45;;;5.80;99.90;;;;;;5028183;28;20370;-68
2022/04/04 03:14:54;;;;;;;19.30;8.30;;;5.80;99.90;;;;;;5010629;28;20068;-69
2022/04/04 03:17:19;;;;;;;17.53;8.27;;;5.80;99.90;;;;;;5045414;28;20045;-68
2022/04/04 03:19:45;;;;;;;17.00;8.87;;;5.80;99.90;;;;;;5046414;28;20071;-69
2022/04/04 03:22:10;;;;;;;19.03;9.63;;;5.80;99.90;;;;;;5028878;28;20537;-69
2022/04/04 03:24:36;;;;;;;19.00;8.23;;;5.80;99.90;;;;;;5028810;28;20486;-69
2022/04/04 03:27:01;;;;;;;20.43;8.93;;;5.90;99.90;;;;;;5047460;28;20415;-69
2022/04/04 03:29:27;;;;;;;17.73;8.77;;;5.90;99.90;;;;;;5045548;28;20040;-69
2022/04/04 03:31:53;;;;;;;18.17;10.40;;;5.90;99.90;;;;;;5028951;28;21088;-69
2022/04/04 03:34:19;;;;;;;15.17;8.73;;;5.90;99.90;;;;;;5054388;28;20052;-68
2022/04/04 03:36:47;;;;;;;;;;;5.90;99.90;;;;;;5049314;28;20037;-69
2022/04/04 03:39:13;;;;;;;18.40;8.50;;;5.90;99.90;;;;;;5031558;28;19940;-69
2022/04/04 03:41:39;;;;;;;17.67;8.55;;;5.90;99.90;;;;;;5048923;28;20037;-69
2022/04/04 03:44:06;;;;;;;20.08;9.48;;;5.90;99.90;;;;;;5046516;28;20125;-69
2022/04/04 03:46:32;;;;;;;17.52;9.05;;;5.80;99.90;;;;;;5044594;28;20102;-69
2022/04/04 03:48:58;;;;;;;18.42;9.07;;;5.80;99.90;;;;;;5032199;28;20037;-69
2022/04/04 03:51:24;;;;;;;14.70;8.40;;;5.80;99.90;;;;;;5025918;28;20079;-69
2022/04/04 03:53:49;;;;;;;17.50;8.70;;;5.80;99.90;;;;;;5042149;28;20535;-69
2022/04/04 03:56:15;;;;;;;18.07;9.30;;;5.80;99.90;;;;;;5034127;28;20049;-69
2022/04/04 03:58:40;;;;;;;17.47;9.17;;;5.90;99.90;;;;;;5050232;28;20037;-68
2022/04/04 04:01:06;;;;;;;21.77;10.57;;;5.80;99.90;;;;;;5050770;28;20504;-69
2022/04/04 04:03:34;;;;;;;17.80;10.27;;;5.80;99.90;;;;;;5052119;28;20060;-69
2022/04/04 04:06:12;;;;;;;19.80;9.00;;;5.80;99.90;;;;;;5051755;28;20036;-69
2022/04/04 04:08:43;;;;;;;17.73;8.80;;;5.70;99.90;;;;;;5034318;28;20061;-69
2022/04/04 04:11:10;;;;;;;17.33;9.50;;;5.80;99.90;;;;;;5031048;28;20172;-68
2022/04/04 04:13:36;;;;;;;20.83;9.93;;;5.70;99.90;;;;;;5047402;28;20481;-69
2022/04/04 04:16:02;;;;;;;17.50;8.50;;;5.70;99.90;;;;;;5050947;28;20041;-69
2022/04/04 04:18:29;;;;;;;18.13;8.23;;;5.70;99.90;;;;;;5029952;28;20034;-68
2022/04/04 04:20:55;;;;;;;;;;;5.70;99.90;;;;;;5048080;28;20091;-69
2022/04/04 04:23:21;;;;;;;16.27;8.13;;;5.70;99.90;;;;;;5030659;28;19916;-69
2022/04/04 04:25:48;;;;;;;13.27;6.63;;;5.70;99.90;;;;;;5050888;28;20028;-69
2022/04/04 04:28:14;;;;;;;18.67;6.80;;;5.70;99.90;;;;;;5052384;28;20124;-69
2022/04/04 04:30:41;;;;;;;17.65;6.97;;;5.70;99.90;;;;;;5045423;28;20040;-69
2022/04/04 04:33:07;;;;;;;13.23;6.38;;;5.70;99.90;;;;;;5027429;28;20045;-69
2022/04/04 04:35:33;;;;;;;11.40;6.07;;;5.70;99.90;;;;;;5028123;28;20566;-68
2022/04/04 04:37:59;;;;;;;13.45;5.78;;;5.70;99.90;;;;;;5022222;28;20095;-68
2022/04/04 04:40:25;;;;;;;9.93;5.50;;;5.60;99.90;;;;;;5022576;28;20040;-69
2022/04/04 04:42:52;;;;;;;12.27;6.27;;;5.60;99.90;;;;;;5045075;28;20047;-69
2022/04/04 04:45:18;;;;;;;12.50;6.22;;;5.60;99.90;;;;;;5011042;28;20044;-69
2022/04/04 04:47:43;;;;;;;13.33;5.17;;;5.60;99.90;;;;;;5023176;28;20044;-69
2022/04/04 04:50:11;;;;;;;10.63;5.70;;;5.60;99.90;;;;;;5044060;28;20067;-68
2022/04/04 04:52:36;;;;;;;15.13;5.63;;;5.60;99.90;;;;;;5041176;28;20071;-69
2022/04/04 04:55:04;;;;;;;13.17;5.30;;;5.60;99.90;;;;;;5047087;28;20049;-68
2022/04/04 04:57:30;;;;;;;15.40;6.25;;;5.60;99.90;;;;;;5022376;28;20053;-69
2022/04/04 04:59:56;;;;;;;15.52;6.22;;;5.60;99.90;;;;;;5037189;28;20041;-69
2022/04/04 05:02:22;;;;;;;16.23;5.88;;;5.60;99.90;;;;;;5046966;28;20116;-69
2022/04/04 05:04:48;;;;;;;14.63;7.07;;;5.60;99.90;;;;;;5023267;28;20151;-69
2022/04/04 05:07:13;;;;;;;12.43;6.83;;;5.60;99.90;;;;;;5025968;28;20257;-68
2022/04/04 05:09:39;;;;;;;14.70;6.20;;;5.60;99.90;;;;;;5036126;28;20115;-69
2022/04/04 05:12:06;;;;;;;15.43;7.27;;;5.60;99.90;;;;;;5053226;28;20044;-69
2022/04/04 05:14:32;;;;;;;16.92;7.22;;;5.60;99.90;;;;;;5030346;28;20106;-69
2022/04/04 05:16:57;;;;;;;16.87;7.50;;;5.60;99.90;;;;;;5045712;28;20063;-68
2022/04/04 05:19:26;;;;;;;17.40;6.67;;;5.60;99.90;;;;;;5044683;28;20085;-66
2022/04/04 05:21:51;;;;;;;13.20;7.22;;;5.50;99.90;;;;;;5024786;28;20029;-69
2022/04/04 05:24:17;;;;;;;13.60;6.90;;;5.50;99.90;;;;;;5048063;28;20045;-68
2022/04/04 05:26:43;;;;;;;17.33;7.18;;;5.50;99.90;;;;;;5025156;28;20112;-69
2022/04/04 05:29:09;;;;;;;12.45;6.03;;;5.50;99.90;;;;;;5028969;28;20088;-69
2022/04/04 05:31:35;;;;;;;11.30;5.13;;;5.40;99.90;;;;;;5028705;28;20178;-69
2022/04/04 05:34:04;;;;;;;10.02;4.45;;;5.40;99.90;;;;;;5023468;28;20067;-68
2022/04/04 05:36:30;;;;;;;9.20;3.67;;;5.40;99.90;;;;;;5040158;28;20043;-69
2022/04/04 05:38:56;;;;;;;9.52;3.25;;;5.40;99.90;;;;;;5010695;28;20084;-69
2022/04/04 05:41:22;;;;;;;10.17;4.23;;;5.30;99.90;;;;;;5030179;28;20075;-69
2022/04/04 05:43:48;;;;;;;13.73;3.60;;;5.30;99.90;;;;;;5028321;28;20124;-69
2022/04/04 05:46:15;;;;;;;7.50;3.20;;;5.20;99.90;;;;;;5043443;28;20160;-68
2022/04/04 05:48:41;;;;;;;5.95;2.97;;;5.20;99.90;;;;;;5026442;28;20079;-68
2022/04/04 05:51:08;;;;;;;5.60;2.45;;;5.20;99.90;;;;;;5057879;22;20056;-68
2022/04/04 05:53:34;;;;;;;4.82;2.15;;;5.10;99.90;;;;;;5037896;28;20100;-68
2022/04/04 05:56:00;;;;;;;6.90;1.95;;;5.10;99.90;;;;;;5025564;28;20078;-68
2022/04/04 05:58:25;;;;;;;5.32;1.77;;;5.00;99.90;;;;;;5013145;28;20033;-69
2022/04/04 06:00:51;;;;;;;6.30;1.83;;;5.00;99.90;;;;;;5023459;28;20071;-69
2022/04/04 06:03:18;;;;;;;3.13;1.70;;;5.00;99.90;;;;;;5038762;28;20052;-68
2022/04/04 06:05:46;;;;;;;4.80;1.90;;;5.00;99.90;;;;;;5043194;28;20172;-68
2022/04/04 06:08:11;;;;;;;6.13;1.73;;;5.00;99.90;;;;;;5037313;28;20209;-69
2022/04/04 06:10:37;;;;;;;5.80;1.63;;;4.90;99.90;;;;;;5028691;28;20132;-69
2022/04/04 06:13:02;;;;;;;6.47;1.97;;;4.90;99.90;;;;;;5040116;28;20040;-68
2022/04/04 06:15:28;;;;;;;7.90;2.17;;;5.00;99.90;;;;;;5019854;28;20135;-71
2022/04/04 06:17:53;;;;;;;4.17;1.80;;;4.90;99.90;;;;;;5023387;28;20048;-68
2022/04/04 06:20:19;;;;;;;4.80;2.23;;;5.00;99.90;;;;;;5021007;28;20511;-69
2022/04/04 06:22:45;;;;;;;8.85;2.35;;;5.00;99.90;;;;;;5018726;28;20127;-72
2022/04/04 06:25:15;;;;;;;8.33;3.00;;;5.00;99.90;;;;;;5019994;28;20230;-73
2022/04/04 06:27:41;;;;;;;6.43;1.95;;;5.00;99.90;;;;;;5015581;28;20116;-74
2022/04/04 06:30:08;;;;;;;4.78;2.10;;;5.00;99.90;;;;;;5009245;28;20212;-72
2022/04/04 06:32:34;;;;;;;6.22;2.50;;;5.10;99.90;;;;;;5034907;28;20051;-71
2022/04/04 06:34:59;;;;;;;4.47;2.42;;;5.10;99.90;;;;;;5018883;28;20049;-73
2022/04/04 06:37:25;;;;;;;6.50;2.80;;;5.10;99.90;;;;;;5025744;28;20037;-70
2022/04/04 06:39:51;;;;;;;11.67;3.30;;;5.10;99.90;;;;;;5006175;28;20082;-68
2022/04/04 06:42:16;;;;;;;9.57;3.43;;;5.20;99.90;;;;;;5040076;28;20049;-68
2022/04/04 06:44:42;;;;;;;6.83;2.77;;;5.20;99.90;;;;;;5024255;28;20036;-69
2022/04/04 06:47:11;;;;;;;8.07;3.67;;;5.20;99.90;;;;;;5032761;28;20543;-69
2022/04/04 06:49:37;;;;;;;8.40;3.67;;;5.20;99.90;;;;;;5039186;28;20072;-68
2022/04/04 06:52:03;;;;;;;8.77;3.90;;;5.20;99.90;;;;;;5029268;28;20446;-69
2022/04/04 06:54:28;;;;;;;11.07;4.20;;;5.30;99.90;;;;;;5025382;28;20303;-74
2022/04/04 06:56:55;;;;;;;17.37;4.23;;;5.30;99.90;;;;;;5013188;28;20049;-69
2022/04/04 06:59:21;;;;;;;;;;;5.30;99.90;;;;;;5031326;28;20398;-68
2022/04/04 07:01:47;;;;;;;10.63;4.50;;;5.30;99.90;;;;;;5007606;28;19927;-69
2022/04/04 07:04:13;;;;;;;9.55;4.05;;;5.30;99.90;;;;;;5022755;28;20103;-69
2022/04/04 07:06:40;;;;;;;11.20;4.57;;;5.40;99.90;;;;;;5026340;28;20049;-68
2022/04/04 07:09:07;;;;;;;9.55;4.82;;;5.40;99.90;;;;;;5023221;28;20079;-68
2022/04/04 07:11:34;;;;;;;13.82;5.10;;;5.40;99.90;;;;;;5021103;28;20410;-69
2022/04/04 07:14:00;;;;;;;;;;;5.40;99.90;;;;;;5029295;28;20102;-69
2022/04/04 07:16:25;;;;;;;13.55;4.90;;;5.50;99.90;;;;;;5002264;28;19924;-68
2022/04/04 07:18:52;;;;;;;12.67;5.30;;;5.50;99.90;;;;;;5025180;28;20132;-68
2022/04/04 07:21:18;;;;;;;19.88;6.03;;;5.50;99.90;;;;;;4992928;28;20049;-68
2022/04/04 07:23:43;;;;;;;10.90;5.30;;;5.50;99.90;;;;;;5016663;28;20052;-68
2022/04/04 07:26:09;;;;;;;18.23;6.27;;;5.60;99.90;;;;;;5017437;28;20531;-68
2022/04/04 07:28:34;;;;;;;15.37;6.53;;;5.60;99.90;;;;;;5036908;28;20029;-68
2022/04/04 07:31:03;;;;;;;15.10;5.53;;;5.60;99.90;;;;;;5036801;28;20029;-68
2022/04/04 07:33:29;;;;;;;11.45;5.47;;;5.70;99.90;;;;;;5019739;28;20033;-68
2022/04/04 07:35:55;;;;;;;14.93;6.03;;;5.70;99.90;;;;;;5028939;28;20102;-68
2022/04/04 07:38:21;;;;;;;15.70;6.73;;;5.70;99.90;;;;;;5019117;28;20091;-69
2022/04/04 07:40:47;;;;;;;12.00;6.07;;;5.80;99.90;;;;;;5029319;28;20493;-68
2022/04/04 07:43:12;;;;;;;13.43;5.45;;;5.80;99.90;;;;;;5040983;28;20032;-68
2022/04/04 07:45:39;;;;;;;12.90;4.93;;;5.80;99.90;;;;;;5042285;28;20473;-68
2022/04/04 07:48:04;;;;;;;12.73;5.32;;;5.80;99.90;;;;;;5020308;28;20048;-68
2022/04/04 07:50:30;;;;;;;10.88;4.78;;;5.80;99.90;;;;;;5024609;28;20124;-68
2022/04/04 07:52:56;;;;;;;15.27;5.47;;;5.90;99.90;;;;;;5039144;28;20351;-68
2022/04/04 07:55:22;;;;;;;11.57;5.28;;;5.90;99.90;;;;;;5039044;28;20041;-68
2022/04/04 07:57:48;;;;;;;11.07;4.97;;;5.90;99.90;;;;;;5037735;28;20590;-68
2022/04/04 08:00:17;;;;;;;10.88;4.07;;;5.90;99.90;;;;;;5024370;28;20063;-68
2022/04/04 08:02:43;;;;;;;11.68;5.45;;;5.90;99.90;;;;;;5016217;28;20033;-68
2022/04/04 08:05:09;;;;;;;10.32;4.70;;;5.90;99.90;;;;;;5041402;28;20113;-68
2022/04/04 08:07:36;;;;;;;9.18;4.40;;;5.90;99.90;;;;;;5019923;28;20500;-68
2022/04/04 08:10:02;;;;;;;8.63;4.05;;;5.90;99.90;;;;;;5039518;28;20539;-68
2022/04/04 08:12:28;;;;;;;14.00;5.28;;;5.90;99.90;;;;;;5037755;28;20123;-68
2022/04/04 08:14:54;;;;;;;7.15;3.80;;;5.90;99.90;;;;;;5041690;28;20036;-68
2022/04/04 08:17:20;;;;;;;8.75;4.30;;;6.00;99.90;;;;;;5004606;28;20238;-68
2022/04/04 08:19:46;;;;;;;10.52;4.47;;;6.00;99.90;;;;;;5025748;28;20040;-68
2022/04/04 08:22:11;;;;;;;9.27;3.23;;;6.00;99.90;;;;;;5017572;28;20124;-73
2022/04/04 08:24:37;;;;;;;8.60;3.60;;;6.00;99.90;;;;;;5019266;28;20048;-74
2022/04/04 08:27:03;;;;;;;7.13;3.60;;;6.00;99.90;;;;;;5005637;28;20053;-71
2022/04/04 08:29:28;;;;;;;7.73;3.00;;;6.00;99.90;;;;;;5013386;28;20029;-73
2022/04/04 08:31:54;;;;;;;10.67;3.57;;;6.10;99.90;;;;;;5018855;28;20037;-71
2022/04/04 08:34:20;;;;;;;6.20;3.20;;;6.10;99.90;;;;;;5041132;28;20442;-72
2022/04/04 08:36:46;;;;;;;6.90;3.57;;;6.10;99.90;;;;;;5023617;28;20482;-71
2022/04/04 08:39:11;;;;;;;8.30;3.10;;;6.10;99.90;;;;;;5022120;28;20037;-75
2022/04/04 08:41:38;;;;;;;8.83;4.00;;;6.10;99.90;;;;;;5024097;28;20147;-72
2022/04/04 08:44:04;;;;;;;5.70;2.92;;;6.10;99.90;;;;;;5018742;28;20045;-70
2022/04/04 08:46:33;;;;;;;8.18;3.10;;;6.20;99.90;;;;;;5015470;28;20458;-70
2022/04/04 08:48:59;;;;;;;5.05;2.60;;;6.20;99.90;;;;;;5018774;28;20052;-70
2022/04/04 08:51:26;;;;;;;7.07;2.42;;;6.20;99.90;;;;;;5043158;28;20047;-69
2022/04/04 08:53:52;;;;;;;8.77;3.15;;;6.20;99.90;;;;;;5032112;28;20180;-72
2022/04/04 08:56:20;;;;;;;6.30;3.13;;;6.30;99.90;;;;;;5012340;28;20347;-72
2022/04/04 08:58:45;;;;;;;10.95;3.20;;;6.30;99.90;;;;;;5044701;28;20033;-73
2022/04/04 09:01:11;;;;;;;10.27;3.00;;;6.30;99.90;;;;;;5019066;28;20067;-72
2022/04/04 09:03:37;;;;;;;6.10;3.23;;;6.30;99.90;;;;;;5022991;28;20076;-74
2022/04/04 09:06:03;;;;;;;8.57;2.83;;;6.40;99.90;;;;;;5040837;28;21177;-74
2022/04/04 09:08:41;;;;;;;5.03;2.38;;;6.40;99.90;;;;;;5023269;28;20044;-73
2022/04/04 09:11:07;;;;;;;5.30;2.38;;;6.40;99.90;;;;;;5038158;28;20052;-75
2022/04/04 09:13:34;;;;;;;6.35;2.20;;;6.40;99.90;;;;;;5023513;28;20044;-70
2022/04/04 09:16:02;;;;;;;4.22;2.03;;;6.40;99.90;;;;;;5021850;28;20049;-71
2022/04/04 09:18:37;;;;;;;5.10;2.55;;;6.50;99.90;;;;;;5023348;28;20485;-67
2022/04/04 09:21:04;;;;;;;11.77;2.67;;;6.50;99.90;;;;;;5035292;28;20080;-68
2022/04/04 09:23:34;;;;;;;6.18;2.70;;;6.50;99.90;;;;;;5034552;28;20327;-68
2022/04/04 09:26:01;;;;;;;6.03;2.38;;;6.50;99.90;;;;;;5032365;28;20188;-69
2022/04/04 09:28:27;;;;;;;5.03;2.20;;;6.60;99.90;;;;;;5037975;28;20521;-68
2022/04/04 09:31:06;;;;;;;5.45;2.10;;;6.60;99.90;;;;;;5006984;28;20099;-67
2022/04/04 09:33:40;;;;;;;8.90;1.88;;;6.60;99.90;;;;;;5006009;28;20048;-67
2022/04/04 09:36:07;;;;;;;7.82;2.40;;;6.60;99.90;;;;;;5023858;28;20048;-67
2022/04/04 09:38:36;;;;;;;5.63;2.22;;;6.60;99.90;;;;;;5017148;28;20040;-67
2022/04/04 09:41:06;;;;;;;5.00;2.00;;;6.60;99.90;;;;;;5019201;28;20568;-67
2022/04/04 09:43:52;;;;;;;4.85;1.90;;;6.70;99.90;;;;;;5021472;28;20044;-67
2022/04/04 09:46:18;;;;;;;6.82;2.22;;;6.70;99.90;;;;;;5036253;28;20674;-67
2022/04/04 09:49:07;;;;;;;9.67;2.53;;;6.70;99.90;;;;;;5041075;28;20098;-68
2022/04/04 09:51:50;;;;;;;7.95;2.33;;;6.70;99.90;;;;;;5023449;28;20045;-67
2022/04/04 09:54:16;;;;;;;5.28;2.00;;;6.70;99.90;;;;;;5022800;28;20089;-68
2022/04/04 09:56:41;;;;;;;5.50;2.00;;;6.80;99.90;;;;;;5016525;28;20044;-67
2022/04/04 09:59:10;;;;;;;8.07;2.47;;;6.80;99.90;;;;;;5027553;28;20702;-68
2022/04/04 10:01:36;;;;;;;5.32;2.00;;;6.80;99.90;;;;;;5022843;28;20802;-68
2022/04/04 10:04:03;;;;;;;9.23;2.40;;;6.80;99.90;;;;;;5044194;28;20588;-68
2022/04/04 10:06:31;;;;;;;8.57;2.67;;;6.80;99.90;;;;;;5019938;28;20509;-67
2022/04/04 10:08:58;;;;;;;6.93;2.17;;;6.80;99.90;;;;;;5035611;28;20043;-67
2022/04/04 10:11:25;;;;;;;5.00;2.30;;;6.80;99.90;;;;;;5034445;28;20417;-68
2022/04/04 10:13:52;;;;;;;2.80;1.45;;;6.80;99.90;;;;;;5015315;28;20047;-67
2022/04/04 10:16:18;;;;;;;5.28;1.83;;;6.80;99.90;;;;;;5033314;28;20037;-67
2022/04/04 10:18:45;;;;;;;4.03;1.73;;;6.90;99.90;;;;;;5032756;28;20037;-69
2022/04/04 10:21:11;;;;;;;;;;;6.90;99.90;;;;;;5039465;28;20633;-71
2022/04/04 10:23:39;;;;;;;4.82;1.95;;;6.90;99.90;;;;;;5019161;28;20384;-71
2022/04/04 10:26:07;;;;;;;5.05;1.85;;;6.90;99.90;;;;;;5014799;28;20051;-71
2022/04/04 10:28:38;;;;;;;2.75;1.85;;;7.00;99.90;;;;;;5030074;28;20546;-71
2022/04/04 10:31:17;;;;;;;6.57;1.48;;;7.00;99.90;;;;;;5023023;28;20103;-71
2022/04/04 10:33:45;;;;;;;6.65;1.73;;;7.00;99.90;;;;;;5021226;28;20120;-71
2022/04/04 10:36:20;;;;;;;4.80;1.48;;;7.10;99.90;;;;;;5028041;28;20041;-71
2022/04/04 10:38:51;;;;;;;3.50;1.75;;;7.10;99.90;;;;;;5016141;28;20041;-71
2022/04/04 10:41:25;;;;;;;2.35;1.13;;;7.10;99.90;;;;;;4986960;28;20479;-71
2022/04/04 10:43:55;;;;;;;3.80;1.15;;;7.20;99.90;;;;;;4963696;28;20036;-71
2022/04/04 10:46:23;;;;;;;4.95;1.40;;;7.10;99.90;;;;;;5029334;28;20040;-70
2022/04/04 10:49:01;;;;;;;6.28;1.23;;;7.20;99.90;;;;;;5007220;28;20033;-71
2022/04/04 10:51:39;;;;;;;4.38;1.10;;;7.20;99.90;;;;;;4883149;28;20505;-71
2022/04/04 10:54:10;;;;;;;5.93;1.60;;;7.20;99.90;;;;;;4925580;28;20425;-71
2022/04/04 10:56:49;;;;;;;3.70;1.25;;;7.20;99.90;;;;;;4894099;28;20044;-71
2022/04/04 10:59:15;;;;;;;2.53;0.95;;;7.30;99.90;;;;;;4985863;28;20041;-71
2022/04/04 11:01:56;;;;;;;3.57;0.97;;;7.30;99.90;;;;;;5015982;28;20856;-70
2022/04/04 11:04:34;;;;;;;3.55;0.90;;;7.30;99.90;;;;;;5010274;28;20111;-71
2022/04/04 11:10:06;;;;;;;2.58;0.75;;;7.30;99.90;;;;;;4913791;28;20062;-72
2022/04/04 11:13:00;;;;;;;3.13;0.82;;;7.40;99.90;;;;;;5010013;28;20064;-73
2022/04/04 11:15:55;;;;;;;1.08;0.52;;;7.40;99.90;;;;;;4922918;28;20343;-74
2022/04/04 11:18:32;;;;;;;1.40;0.70;;;7.50;99.90;;;;;;4919605;28;20563;-77
2022/04/04 11:21:05;;;;;;;4.75;0.93;;;7.50;99.90;;;;;;4860059;28;20337;-79
2022/04/04 11:23:35;;;;;;;2.83;0.73;;;7.50;99.90;;;;;;4826687;28;20498;-75
2022/04/04 11:26:04;;;;;;;2.58;0.77;;;7.60;99.90;;;;;;4973853;28;20044;-72
2022/04/04 11:28:35;;;;;;;2.88;0.80;;;7.60;99.90;;;;;;5008436;28;20033;-72
2022/04/04 11:31:12;;;;;;;3.42;1.40;;;7.60;99.90;;;;;;5020150;28;20036;-72
2022/04/04 11:33:51;;;;;;;1.57;0.67;;;7.60;99.90;;;;;;5009910;28;20501;-72
2022/04/04 11:36:32;;;;;;;1.73;0.60;;;7.70;99.90;;;;;;4929319;28;20806;-73
2022/04/04 11:39:08;;;;;;;1.73;0.60;;;7.70;99.90;;;;;;4826137;28;20623;-74
2022/04/04 11:41:46;;;;;;;2.50;0.70;;;7.70;99.90;;;;;;4903307;28;20088;-70
2022/04/04 11:44:24;;;;;;;0.98;0.60;;;7.70;99.90;;;;;;5008014;28;20438;-70
2022/04/04 11:47:06;;;;;;;1.73;0.80;;;7.70;99.90;;;;;;4992597;28;20049;-73
2022/04/04 11:49:35;;;;;;;2.90;1.60;;;7.80;99.90;;;;;;5026870;28;20548;-70
2022/04/04 11:52:06;;;;;;;3.28;0.95;;;7.80;99.90;;;;;;5035907;22;20064;-67
2022/04/04 11:54:42;;;;;;;2.67;1.08;;;7.90;99.90;;;;;;5029659;28;20548;-67
2022/04/04 11:57:10;;;;;;;1.60;0.93;;;7.90;99.90;;;;;;5037245;28;20039;-68
2022/04/04 11:59:44;;;;;;;1.83;0.90;;;7.90;99.90;;;;;;5033428;28;20060;-67
2022/04/04 12:02:14;;;;;;;3.40;1.10;;;7.80;99.90;;;;;;5036434;28;20198;-67
2022/04/04 12:04:45;;;;;;;2.17;1.00;;;7.90;99.90;;;;;;5029599;28;20044;-67
2022/04/04 12:07:11;;;;;;;2.03;1.13;;;7.90;99.90;;;;;;5038012;28;20111;-67
2022/04/04 12:10:16;;;;;;;2.35;1.30;;;7.90;99.90;;;;;;4963969;28;20041;-66
2022/04/04 12:12:45;;;;;;;2.92;1.23;;;8.00;99.90;;;;;;4980148;28;20389;-68
2022/04/04 12:15:11;;;;;;;1.88;1.08;;;7.90;99.90;;;;;;5040233;28;20036;-67
2022/04/04 12:17:37;;;;;;;1.48;0.98;;;8.00;99.90;;;;;;5032189;28;20133;-67
2022/04/04 12:20:11;;;;;;;2.55;1.42;;;8.10;99.90;;;;;;5035402;28;20443;-68
2022/04/04 12:25:22;;;;;;;3.38;1.35;;;8.10;99.90;;;;;;4992642;28;20045;-66
2022/04/04 12:28:03;;;;;;;3.50;1.70;;;8.10;99.90;;;;;;4954906;28;20505;-67
2022/04/04 12:30:32;;;;;;;4.55;1.77;;;8.10;99.90;;;;;;5027697;28;20044;-68
2022/04/04 12:33:15;;;;;;;2.97;2.35;;;8.20;99.90;;;;;;5032865;28;20067;-68
2022/04/04 12:35:47;;;;;;;4.63;1.85;;;8.20;99.90;;;;;;5048714;28;20052;-68
2022/04/04 12:38:51;;;;;;;5.30;2.45;;;8.30;99.90;;;;;;5001199;28;20169;-64
2022/04/04 12:41:28;;;;;;;5.47;3.13;;;8.30;99.90;;;;;;4948097;28;20353;-67
2022/04/04 12:44:01;;;;;;;4.80;1.60;;;8.30;99.90;;;;;;5047701;28;20587;-68
2022/04/04 12:46:38;;;;;;;5.63;1.58;;;8.40;99.90;;;;;;5006811;28;20276;-67
2022/04/04 12:49:30;;;;;;;3.50;1.90;;;8.40;99.90;;;;;;4976085;28;20098;-67
2022/04/04 12:51:59;;;;;;;8.30;2.30;;;8.50;99.90;;;;;;5020709;28;20120;-67
2022/04/04 12:54:31;;;;;;;5.55;1.90;;;8.50;99.90;;;;;;4996682;28;20539;-67
2022/04/04 12:56:59;;;;;;;4.78;2.92;;;8.50;99.90;;;;;;5035722;28;20607;-68
2022/04/04 12:59:25;;;;;;;4.97;2.28;;;8.60;99.90;;;;;;5014247;28;20037;-67
2022/04/04 13:02:28;;;;;;;6.65;3.03;;;8.70;99.90;;;;;;5040538;28;20041;-67
2022/04/04 13:05:14;;;;;;;4.72;2.42;;;8.70;99.90;;;;;;5003852;28;20045;-67
2022/04/04 13:07:47;;;;;;;7.43;2.53;;;8.80;99.90;;;;;;5045438;28;20045;-67